createdAt,value
2023-02-15T00:00:43.603Z,20.32
2023-02-15T00:01:44.218Z,20.31
2023-02-15T00:02:44.812Z,20.32
2023-02-15T00:03:45.391Z,20.29
2023-02-15T00:04:45.995Z,20.24
2023-02-15T00:05:46.599Z,20.21
2023-02-15T00:06:47.207Z,20.28
2023-02-15T00:07:47.804Z,20.29
2023-02-15T00:08:48.408Z,20.22
2023-02-15T00:09:49.007Z,20.22
2023-02-15T00:10:49.658Z,20.26
2023-02-15T00:11:50.262Z,20.18
2023-02-15T00:12:51.717Z,20.25
2023-02-15T00:13:52.312Z,20.16
2023-02-15T00:14:52.919Z,20.14
2023-02-15T00:15:53.569Z,20.19
2023-02-15T00:16:54.287Z,20.18
2023-02-15T00:17:54.889Z,20.14
2023-02-15T00:18:55.489Z,20.18
2023-02-15T00:19:56.090Z,20.14
2023-02-15T00:20:56.693Z,20.21
2023-02-15T00:21:57.289Z,20.19
2023-02-15T00:22:57.935Z,20.18
2023-02-15T00:23:58.543Z,20.16
2023-02-15T00:24:59.218Z,20.13
2023-02-15T00:26:00.145Z,20.14
2023-02-15T00:27:00.858Z,20.09
2023-02-15T00:28:01.464Z,20.02
2023-02-15T00:29:02.059Z,20.02
2023-02-15T00:30:02.726Z,20.10
2023-02-15T00:31:04.242Z,20.04
2023-02-15T00:32:04.940Z,20.07
2023-02-15T00:33:06.394Z,20.03
2023-02-15T00:34:06.999Z,20.03
2023-02-15T00:35:07.653Z,20.09
2023-02-15T00:36:08.334Z,20.00
2023-02-15T00:37:08.968Z,20.03
2023-02-15T00:38:09.575Z,19.99
2023-02-15T00:39:10.176Z,20.03
2023-02-15T00:40:10.791Z,20.09
2023-02-15T00:41:11.384Z,20.04
2023-02-15T00:42:11.993Z,20.09
2023-02-15T00:43:12.567Z,20.04
2023-02-15T00:44:13.192Z,19.92
2023-02-15T00:45:13.788Z,20.00
2023-02-15T00:46:14.417Z,19.96
2023-02-15T00:47:15.013Z,19.89
2023-02-15T00:48:15.598Z,19.89
2023-02-15T00:49:16.201Z,19.99
2023-02-15T00:50:16.841Z,19.95
2023-02-15T00:51:17.437Z,19.96
2023-02-15T00:52:18.035Z,19.95
2023-02-15T00:53:18.637Z,19.96
2023-02-15T00:54:19.248Z,19.96
2023-02-15T00:55:19.836Z,19.94
2023-02-15T00:56:20.439Z,20.04
2023-02-15T00:57:21.039Z,19.92
2023-02-15T00:58:21.631Z,19.92
2023-02-15T00:59:22.233Z,19.92
2023-02-15T01:00:22.895Z,19.95
2023-02-15T01:01:23.515Z,19.88
2023-02-15T01:02:24.111Z,19.84
2023-02-15T01:03:24.721Z,19.89
2023-02-15T01:04:25.375Z,19.99
2023-02-15T01:05:25.968Z,19.94
2023-02-15T01:06:26.638Z,19.89
2023-02-15T01:07:27.234Z,19.92
2023-02-15T01:08:27.844Z,19.92
2023-02-15T01:09:28.425Z,19.91
2023-02-15T01:10:29.032Z,19.92
2023-02-15T01:11:29.637Z,19.86
2023-02-15T01:12:30.242Z,19.92
2023-02-15T01:13:30.848Z,19.88
2023-02-15T01:14:31.446Z,19.89
2023-02-15T01:15:32.088Z,19.91
2023-02-15T01:16:32.691Z,19.89
2023-02-15T01:17:33.372Z,19.84
2023-02-15T01:18:33.952Z,19.88
2023-02-15T01:19:34.548Z,19.92
2023-02-15T01:20:35.145Z,19.92
2023-02-15T01:21:35.829Z,19.86
2023-02-15T01:22:36.412Z,19.89
2023-02-15T01:23:37.072Z,19.89
2023-02-15T01:24:37.672Z,19.86
2023-02-15T01:25:38.273Z,19.74
2023-02-15T01:26:38.867Z,19.91
2023-02-15T01:27:39.487Z,19.85
2023-02-15T01:28:40.084Z,19.88
2023-02-15T01:29:40.677Z,19.91
2023-02-15T01:30:41.281Z,19.85
2023-02-15T01:31:41.999Z,19.85
2023-02-15T01:32:42.677Z,19.86
2023-02-15T01:33:43.283Z,19.84
2023-02-15T01:34:43.937Z,19.89
2023-02-15T01:35:44.661Z,19.85
2023-02-15T01:36:46.106Z,19.84
2023-02-15T01:37:47.567Z,19.81
2023-02-15T01:38:48.175Z,19.82
2023-02-15T01:39:48.769Z,19.82
2023-02-15T01:40:49.422Z,19.82
2023-02-15T01:41:50.023Z,19.73
2023-02-15T01:42:50.621Z,19.82
2023-02-15T01:43:51.232Z,19.76
2023-02-15T01:44:51.865Z,19.79
2023-02-15T01:45:52.493Z,19.77
2023-02-15T01:46:53.095Z,19.82
2023-02-15T01:47:53.677Z,19.79
2023-02-15T01:48:54.271Z,19.76
2023-02-15T01:49:54.874Z,19.76
2023-02-15T01:50:55.474Z,19.71
2023-02-15T01:51:56.074Z,19.79
2023-02-15T01:52:56.668Z,19.73
2023-02-15T01:53:57.266Z,19.70
2023-02-15T01:54:57.867Z,19.74
2023-02-15T01:55:58.525Z,19.76
2023-02-15T01:56:59.119Z,19.69
2023-02-15T01:57:59.699Z,19.70
2023-02-15T01:59:00.302Z,19.71
2023-02-15T02:00:00.903Z,19.67
2023-02-15T02:01:01.560Z,19.67
2023-02-15T02:02:02.183Z,19.71
2023-02-15T02:03:02.944Z,19.76
2023-02-15T02:04:03.507Z,19.70
2023-02-15T02:05:04.176Z,19.64
2023-02-15T02:06:04.786Z,19.66
2023-02-15T02:07:05.455Z,19.66
2023-02-15T02:08:06.036Z,19.66
2023-02-15T02:09:06.634Z,19.64
2023-02-15T02:10:07.236Z,19.64
2023-02-15T02:11:07.837Z,19.66
2023-02-15T02:12:08.442Z,19.62
2023-02-15T02:13:09.055Z,19.69
2023-02-15T02:14:09.650Z,19.64
2023-02-15T02:15:10.254Z,19.64
2023-02-15T02:16:11.012Z,19.63
2023-02-15T02:17:11.625Z,19.58
2023-02-15T02:18:12.231Z,19.56
2023-02-15T02:19:12.839Z,19.66
2023-02-15T02:20:13.426Z,19.59
2023-02-15T02:21:14.023Z,19.51
2023-02-15T02:22:14.681Z,19.63
2023-02-15T02:23:15.284Z,19.59
2023-02-15T02:24:15.878Z,19.64
2023-02-15T02:25:16.483Z,19.54
2023-02-15T02:26:17.085Z,19.63
2023-02-15T02:27:17.693Z,19.58
2023-02-15T02:28:18.368Z,19.58
2023-02-15T02:29:18.969Z,19.59
2023-02-15T02:30:19.604Z,19.63
2023-02-15T02:31:20.288Z,19.59
2023-02-15T02:32:20.932Z,19.55
2023-02-15T02:33:21.547Z,19.52
2023-02-15T02:34:22.128Z,19.59
2023-02-15T02:35:22.782Z,19.63
2023-02-15T02:36:23.442Z,19.63
2023-02-15T02:37:24.030Z,19.59
2023-02-15T02:38:24.633Z,19.51
2023-02-15T02:39:25.232Z,19.59
2023-02-15T02:40:26.682Z,19.56
2023-02-15T02:41:27.290Z,19.55
2023-02-15T02:42:27.879Z,19.56
2023-02-15T02:43:28.482Z,19.52
2023-02-15T02:44:29.078Z,19.55
2023-02-15T02:45:29.672Z,19.47
2023-02-15T02:46:30.364Z,19.49
2023-02-15T02:47:30.962Z,19.48
2023-02-15T02:48:31.683Z,19.41
2023-02-15T02:49:32.278Z,19.51
2023-02-15T02:50:32.885Z,19.45
2023-02-15T02:51:33.571Z,19.52
2023-02-15T02:52:34.156Z,19.49
2023-02-15T02:53:34.749Z,19.59
2023-02-15T02:54:35.355Z,19.48
2023-02-15T02:55:35.953Z,19.45
2023-02-15T02:56:36.542Z,19.44
2023-02-15T02:57:37.145Z,19.44
2023-02-15T02:58:37.748Z,19.52
2023-02-15T02:59:38.350Z,19.52
2023-02-15T03:00:38.955Z,19.40
2023-02-15T03:01:39.671Z,19.49
2023-02-15T03:02:40.326Z,19.40
2023-02-15T03:03:40.943Z,19.41
2023-02-15T03:04:41.549Z,19.45
2023-02-15T03:05:42.197Z,19.52
2023-02-15T03:06:42.803Z,19.52
2023-02-15T03:07:43.390Z,19.48
2023-02-15T03:08:43.994Z,19.45
2023-02-15T03:09:45.467Z,19.47
2023-02-15T03:10:46.044Z,19.48
2023-02-15T03:11:46.640Z,19.48
2023-02-15T03:12:47.237Z,19.48
2023-02-15T03:13:47.833Z,19.47
2023-02-15T03:14:48.438Z,19.51
2023-02-15T03:15:49.107Z,19.54
2023-02-15T03:16:49.734Z,19.48
2023-02-15T03:17:50.413Z,19.44
2023-02-15T03:18:51.018Z,19.47
2023-02-15T03:19:51.623Z,19.44
2023-02-15T03:20:52.233Z,19.48
2023-02-15T03:21:52.822Z,19.48
2023-02-15T03:22:53.432Z,19.47
2023-02-15T03:23:54.027Z,19.47
2023-02-15T03:24:54.622Z,19.45
2023-02-15T03:25:55.227Z,19.52
2023-02-15T03:26:55.822Z,19.44
2023-02-15T03:27:56.425Z,19.47
2023-02-15T03:28:57.025Z,19.44
2023-02-15T03:29:57.696Z,19.49
2023-02-15T03:30:58.450Z,19.44
2023-02-15T03:31:59.123Z,19.45
2023-02-15T03:32:59.785Z,19.44
2023-02-15T03:34:00.378Z,19.47
2023-02-15T03:35:00.994Z,19.47
2023-02-15T03:36:01.921Z,19.44
2023-02-15T03:37:02.680Z,19.48
2023-02-15T03:38:03.281Z,19.45
2023-02-15T03:39:03.884Z,19.45
2023-02-15T03:40:04.480Z,19.44
2023-02-15T03:41:05.140Z,19.44
2023-02-15T03:42:05.746Z,19.40
2023-02-15T03:43:06.344Z,19.44
2023-02-15T03:44:06.943Z,19.45
2023-02-15T03:45:07.542Z,19.45
2023-02-15T03:46:08.155Z,19.39
2023-02-15T03:47:08.739Z,19.44
2023-02-15T03:48:09.347Z,19.44
2023-02-15T03:49:09.944Z,19.40
2023-02-15T03:50:10.697Z,19.41
2023-02-15T03:51:11.294Z,19.44
2023-02-15T03:52:11.890Z,19.36
2023-02-15T03:53:12.546Z,19.45
2023-02-15T03:54:13.148Z,19.39
2023-02-15T03:55:13.734Z,19.44
2023-02-15T03:56:14.402Z,19.41
2023-02-15T03:57:15.005Z,19.37
2023-02-15T03:58:15.596Z,19.44
2023-02-15T03:59:16.243Z,19.39
2023-02-15T04:00:16.846Z,19.41
2023-02-15T04:01:17.479Z,19.44
2023-02-15T04:02:18.092Z,19.39
2023-02-15T04:03:18.743Z,19.41
2023-02-15T04:04:19.352Z,19.31
2023-02-15T04:05:19.949Z,19.34
2023-02-15T04:06:20.554Z,19.36
2023-02-15T04:07:21.150Z,19.34
2023-02-15T04:08:21.746Z,19.36
2023-02-15T04:09:22.343Z,19.39
2023-02-15T04:10:22.936Z,19.37
2023-02-15T04:11:23.529Z,19.31
2023-02-15T04:12:24.129Z,19.41
2023-02-15T04:13:24.722Z,19.39
2023-02-15T04:14:25.330Z,19.31
2023-02-15T04:15:25.973Z,19.31
2023-02-15T04:16:26.601Z,19.30
2023-02-15T04:17:27.243Z,19.34
2023-02-15T04:18:27.841Z,19.27
2023-02-15T04:19:28.440Z,19.27
2023-02-15T04:20:29.048Z,19.34
2023-02-15T04:21:29.652Z,19.31
2023-02-15T04:22:30.517Z,19.27
2023-02-15T04:23:31.128Z,19.37
2023-02-15T04:24:31.739Z,19.21
2023-02-15T04:25:32.334Z,19.26
2023-02-15T04:26:33.000Z,19.34
2023-02-15T04:27:33.604Z,19.24
2023-02-15T04:28:34.210Z,19.26
2023-02-15T04:29:34.802Z,19.36
2023-02-15T04:30:35.424Z,19.26
2023-02-15T04:31:36.982Z,19.37
2023-02-15T04:32:37.659Z,19.31
2023-02-15T04:33:39.061Z,19.31
2023-02-15T04:34:39.654Z,19.31
2023-02-15T04:35:40.256Z,19.36
2023-02-15T04:36:40.870Z,19.31
2023-02-15T04:37:41.451Z,19.31
2023-02-15T04:38:42.048Z,19.26
2023-02-15T04:39:42.707Z,19.30
2023-02-15T04:40:43.310Z,19.26
2023-02-15T04:41:43.914Z,19.27
2023-02-15T04:42:44.558Z,19.31
2023-02-15T04:43:45.154Z,19.26
2023-02-15T04:44:45.756Z,19.33
2023-02-15T04:45:46.427Z,19.31
2023-02-15T04:46:47.033Z,19.29
2023-02-15T04:47:47.630Z,19.33
2023-02-15T04:48:48.225Z,19.29
2023-02-15T04:49:48.831Z,19.21
2023-02-15T04:50:49.447Z,19.26
2023-02-15T04:51:50.031Z,19.30
2023-02-15T04:52:50.632Z,19.22
2023-02-15T04:53:51.226Z,19.30
2023-02-15T04:54:51.822Z,19.29
2023-02-15T04:55:52.484Z,19.21
2023-02-15T04:56:53.073Z,19.36
2023-02-15T04:57:53.675Z,19.29
2023-02-15T04:58:54.269Z,19.30
2023-02-15T04:59:54.872Z,19.33
2023-02-15T05:00:55.546Z,19.30
2023-02-15T05:01:56.154Z,19.26
2023-02-15T05:02:57.606Z,19.30
2023-02-15T05:03:58.216Z,19.18
2023-02-15T05:04:58.794Z,19.33
2023-02-15T05:05:59.583Z,19.24
2023-02-15T05:07:00.320Z,19.29
2023-02-15T05:08:00.897Z,19.31
2023-02-15T05:09:01.495Z,19.27
2023-02-15T05:10:02.119Z,19.22
2023-02-15T05:11:02.713Z,19.31
2023-02-15T05:12:03.318Z,19.26
2023-02-15T05:13:03.913Z,19.24
2023-02-15T05:14:04.577Z,19.29
2023-02-15T05:15:05.172Z,19.21
2023-02-15T05:16:05.774Z,19.29
2023-02-15T05:17:06.403Z,19.19
2023-02-15T05:18:07.003Z,19.30
2023-02-15T05:19:07.608Z,19.27
2023-02-15T05:20:08.208Z,19.27
2023-02-15T05:21:08.799Z,19.30
2023-02-15T05:22:09.402Z,19.30
2023-02-15T05:23:10.150Z,19.18
2023-02-15T05:24:10.751Z,19.18
2023-02-15T05:25:11.351Z,19.26
2023-02-15T05:26:12.018Z,19.21
2023-02-15T05:27:12.606Z,19.22
2023-02-15T05:28:13.206Z,19.22
2023-02-15T05:29:13.808Z,19.29
2023-02-15T05:30:14.495Z,19.29
2023-02-15T05:31:15.350Z,19.21
2023-02-15T05:32:16.057Z,19.22
2023-02-15T05:33:16.755Z,19.21
2023-02-15T05:34:17.352Z,19.22
2023-02-15T05:35:17.959Z,19.21
2023-02-15T05:36:18.557Z,19.15
2023-02-15T05:37:19.152Z,19.22
2023-02-15T05:38:19.751Z,19.19
2023-02-15T05:39:20.342Z,19.30
2023-02-15T05:40:20.955Z,19.24
2023-02-15T05:41:21.608Z,19.21
2023-02-15T05:42:22.209Z,19.19
2023-02-15T05:43:22.810Z,19.21
2023-02-15T05:44:23.415Z,19.22
2023-02-15T05:45:24.087Z,19.21
2023-02-15T05:46:24.791Z,19.22
2023-02-15T05:47:25.562Z,19.18
2023-02-15T05:48:26.159Z,19.21
2023-02-15T05:49:26.774Z,19.21
2023-02-15T05:50:27.366Z,19.24
2023-02-15T05:51:28.017Z,19.24
2023-02-15T05:52:28.628Z,19.14
2023-02-15T05:53:29.222Z,19.21
2023-02-15T05:54:29.816Z,19.19
2023-02-15T05:55:30.416Z,19.19
2023-02-15T05:56:31.163Z,19.21
2023-02-15T05:57:31.767Z,19.12
2023-02-15T05:58:32.361Z,19.27
2023-02-15T05:59:33.022Z,19.24
2023-02-15T06:00:33.620Z,19.26
2023-02-15T06:01:34.216Z,19.19
2023-02-15T06:02:34.887Z,19.21
2023-02-15T06:03:35.529Z,19.22
2023-02-15T06:04:36.158Z,19.22
2023-02-15T06:05:36.764Z,19.24
2023-02-15T06:06:37.367Z,19.22
2023-02-15T06:07:38.133Z,19.21
2023-02-15T06:08:38.727Z,19.19
2023-02-15T06:09:39.388Z,19.16
2023-02-15T06:10:40.053Z,19.16
2023-02-15T06:11:40.638Z,19.16
2023-02-15T06:12:41.229Z,19.22
2023-02-15T06:13:41.830Z,19.15
2023-02-15T06:14:42.436Z,19.16
2023-02-15T06:15:43.072Z,19.19
2023-02-15T06:16:43.667Z,19.16
2023-02-15T06:17:44.270Z,19.16
2023-02-15T06:18:44.874Z,19.26
2023-02-15T06:19:45.495Z,19.26
2023-02-15T06:20:46.091Z,19.18
2023-02-15T06:21:46.687Z,19.15
2023-02-15T06:22:47.286Z,19.21
2023-02-15T06:23:47.893Z,19.19
2023-02-15T06:24:48.607Z,19.18
2023-02-15T06:25:49.277Z,19.16
2023-02-15T06:26:49.877Z,19.08
2023-02-15T06:27:50.472Z,19.15
2023-02-15T06:28:51.069Z,19.14
2023-02-15T06:29:51.702Z,19.07
2023-02-15T06:30:53.191Z,19.12
2023-02-15T06:31:54.017Z,19.18
2023-02-15T06:32:54.701Z,19.15
2023-02-15T06:33:55.305Z,19.14
2023-02-15T06:34:55.959Z,19.19
2023-02-15T06:35:56.560Z,19.15
2023-02-15T06:36:57.953Z,19.07
2023-02-15T06:37:58.559Z,19.21
2023-02-15T06:38:59.166Z,19.14
2023-02-15T06:40:01.923Z,19.11
2023-02-15T06:41:01.355Z,19.14
2023-02-15T06:42:02.026Z,19.11
2023-02-15T06:43:02.620Z,19.14
2023-02-15T06:44:03.211Z,19.11
2023-02-15T06:45:04.460Z,19.16
2023-02-15T06:46:04.923Z,19.15
2023-02-15T06:47:05.839Z,19.11
2023-02-15T06:48:06.500Z,19.22
2023-02-15T06:49:07.102Z,19.11
2023-02-15T06:50:07.716Z,19.11
2023-02-15T06:51:08.306Z,19.15
2023-02-15T06:52:08.915Z,19.15
2023-02-15T06:53:09.510Z,19.18
2023-02-15T06:54:10.153Z,19.15
2023-02-15T06:55:10.749Z,19.18
2023-02-15T06:56:11.346Z,19.16
2023-02-15T06:57:12.006Z,19.16
2023-02-15T06:58:12.603Z,19.11
2023-02-15T06:59:13.240Z,19.14
2023-02-15T07:00:13.836Z,19.14
2023-02-15T07:01:14.471Z,19.12
2023-02-15T07:02:15.057Z,19.14
2023-02-15T07:03:15.676Z,19.14
2023-02-15T07:04:16.265Z,19.11
2023-02-15T07:05:16.888Z,19.11
2023-02-15T07:06:17.483Z,19.16
2023-02-15T07:07:18.076Z,19.09
2023-02-15T07:08:18.679Z,19.09
2023-02-15T07:09:19.281Z,19.09
2023-02-15T07:10:19.878Z,19.11
2023-02-15T07:11:20.501Z,19.09
2023-02-15T07:12:21.097Z,19.09
2023-02-15T07:13:21.682Z,19.14
2023-02-15T07:14:22.281Z,19.14
2023-02-15T07:15:22.890Z,19.12
2023-02-15T07:16:23.532Z,19.12
2023-02-15T07:17:37.471Z,19.12
2023-02-15T07:18:25.753Z,19.08
2023-02-15T07:19:26.350Z,19.15
2023-02-15T07:20:26.951Z,19.12
2023-02-15T07:21:27.555Z,19.08
2023-02-15T07:22:28.141Z,19.12
2023-02-15T07:23:28.744Z,19.16
2023-02-15T07:24:29.346Z,19.16
2023-02-15T07:25:29.932Z,19.07
2023-02-15T07:26:30.528Z,19.09
2023-02-15T07:27:31.129Z,19.12
2023-02-15T07:28:31.727Z,19.12
2023-02-15T07:29:32.396Z,19.11
2023-02-15T07:30:33.115Z,19.11
2023-02-15T07:31:33.745Z,19.12
2023-02-15T07:32:34.410Z,19.11
2023-02-15T07:33:35.034Z,19.07
2023-02-15T07:34:35.612Z,19.08
2023-02-15T07:35:36.205Z,19.04
2023-02-15T07:36:36.805Z,19.08
2023-02-15T07:37:37.455Z,19.11
2023-02-15T07:38:38.919Z,19.04
2023-02-15T07:39:39.582Z,19.09
2023-02-15T07:40:40.247Z,19.16
2023-02-15T07:41:40.990Z,19.14
2023-02-15T07:42:41.664Z,19.07
2023-02-15T07:43:42.262Z,19.11
2023-02-15T07:44:42.865Z,19.08
2023-02-15T07:45:43.470Z,19.08
2023-02-15T07:46:44.211Z,19.14
2023-02-15T07:47:44.821Z,19.09
2023-02-15T07:48:45.416Z,19.08
2023-02-15T07:49:46.017Z,19.11
2023-02-15T07:50:46.618Z,19.09
2023-02-15T07:51:47.240Z,19.11
2023-02-15T07:52:47.824Z,19.09
2023-02-15T07:53:48.429Z,19.02
2023-02-15T07:54:49.031Z,19.08
2023-02-15T07:55:49.637Z,19.09
2023-02-15T07:56:50.305Z,19.02
2023-02-15T07:57:50.916Z,19.09
2023-02-15T07:58:51.549Z,19.12
2023-02-15T07:59:52.209Z,19.09
2023-02-15T08:00:52.797Z,19.08
2023-02-15T08:01:53.392Z,19.15
2023-02-15T08:02:54.046Z,19.08
2023-02-15T08:03:54.729Z,19.11
2023-02-15T08:04:55.320Z,19.09
2023-02-15T08:05:55.915Z,19.09
2023-02-15T08:06:56.534Z,19.12
2023-02-15T08:07:57.118Z,19.12
2023-02-15T08:08:57.716Z,19.14
2023-02-15T08:09:58.323Z,19.18
2023-02-15T08:10:58.921Z,19.07
2023-02-15T08:11:59.609Z,19.12
2023-02-15T08:13:00.206Z,19.09
2023-02-15T08:14:00.811Z,19.14
2023-02-15T08:15:01.402Z,19.11
2023-02-15T08:16:02.401Z,19.16
2023-02-15T08:17:03.204Z,19.15
2023-02-15T08:18:03.808Z,19.12
2023-02-15T08:19:04.413Z,19.04
2023-02-15T08:20:05.008Z,19.08
2023-02-15T08:21:05.617Z,19.16
2023-02-15T08:22:06.224Z,19.12
2023-02-15T08:23:06.816Z,19.12
2023-02-15T08:24:07.498Z,19.09
2023-02-15T08:25:08.083Z,19.16
2023-02-15T08:26:08.687Z,19.14
2023-02-15T08:27:09.295Z,19.15
2023-02-15T08:28:09.884Z,19.04
2023-02-15T08:29:10.479Z,19.14
2023-02-15T08:30:11.118Z,19.08
2023-02-15T08:31:11.895Z,19.15
2023-02-15T08:32:12.576Z,19.07
2023-02-15T08:33:13.161Z,19.09
2023-02-15T08:34:13.764Z,19.09
2023-02-15T08:35:15.168Z,19.09
2023-02-15T08:36:15.826Z,19.14
2023-02-15T08:37:16.422Z,19.09
2023-02-15T08:38:17.024Z,19.04
2023-02-15T08:39:17.634Z,19.07
2023-02-15T08:40:18.290Z,19.09
2023-02-15T08:41:18.892Z,19.07
2023-02-15T08:42:19.537Z,19.07
2023-02-15T08:43:20.140Z,19.02
2023-02-15T08:44:20.742Z,19.09
2023-02-15T08:45:21.347Z,19.09
2023-02-15T08:46:21.968Z,19.00
2023-02-15T08:47:22.569Z,19.04
2023-02-15T08:48:23.172Z,19.04
2023-02-15T08:49:23.776Z,19.00
2023-02-15T08:50:24.439Z,19.02
2023-02-15T08:51:25.185Z,18.99
2023-02-15T08:52:25.776Z,19.00
2023-02-15T08:53:26.386Z,19.00
2023-02-15T08:54:26.973Z,19.04
2023-02-15T08:55:27.618Z,18.99
2023-02-15T08:56:28.214Z,18.99
2023-02-15T08:57:28.812Z,19.02
2023-02-15T08:58:29.409Z,19.07
2023-02-15T08:59:30.015Z,19.04
2023-02-15T09:00:30.627Z,19.08
2023-02-15T09:01:31.332Z,18.99
2023-02-15T09:02:32.029Z,18.96
2023-02-15T09:03:32.675Z,19.02
2023-02-15T09:04:33.276Z,18.99
2023-02-15T09:05:33.871Z,18.98
2023-02-15T09:06:34.665Z,19.08
2023-02-15T09:07:35.261Z,19.02
2023-02-15T09:08:35.858Z,19.09
2023-02-15T09:09:36.454Z,19.00
2023-02-15T09:10:37.115Z,19.11
2023-02-15T09:11:37.717Z,19.02
2023-02-15T09:12:38.321Z,19.08
2023-02-15T09:13:38.919Z,19.08
2023-02-15T09:14:39.631Z,19.12
2023-02-15T09:15:40.241Z,19.14
2023-02-15T09:16:40.875Z,19.12
2023-02-15T09:17:41.480Z,19.09
2023-02-15T09:18:42.074Z,19.09
2023-02-15T09:19:42.675Z,19.08
2023-02-15T09:20:43.272Z,19.12
2023-02-15T09:21:43.874Z,19.12
2023-02-15T09:22:44.479Z,19.15
2023-02-15T09:23:45.081Z,19.15
2023-02-15T09:24:45.673Z,19.14
2023-02-15T09:25:46.277Z,19.18
2023-02-15T09:26:46.879Z,19.14
2023-02-15T09:27:47.496Z,19.18
2023-02-15T09:28:48.132Z,19.08
2023-02-15T09:29:48.731Z,19.09
2023-02-15T09:30:49.445Z,19.11
2023-02-15T09:31:50.252Z,19.16
2023-02-15T09:32:50.871Z,19.11
2023-02-15T09:33:51.467Z,19.15
2023-02-15T09:34:52.067Z,19.18
2023-02-15T09:35:52.663Z,19.21
2023-02-15T09:36:53.268Z,19.12
2023-02-15T09:37:53.934Z,19.18
2023-02-15T09:38:54.527Z,19.24
2023-02-15T09:39:55.121Z,19.14
2023-02-15T09:40:55.725Z,19.15
2023-02-15T09:41:56.337Z,19.16
2023-02-15T09:42:56.929Z,19.19
2023-02-15T09:43:57.532Z,19.19
2023-02-15T09:44:58.128Z,19.12
2023-02-15T09:45:58.770Z,19.19
2023-02-15T09:46:59.427Z,19.19
2023-02-15T09:48:00.044Z,19.21
2023-02-15T09:49:00.637Z,19.21
2023-02-15T09:50:01.239Z,19.26
2023-02-15T09:51:02.215Z,19.19
2023-02-15T09:52:02.987Z,19.22
2023-02-15T09:53:03.665Z,19.22
2023-02-15T09:54:05.119Z,19.22
2023-02-15T09:55:05.719Z,19.24
2023-02-15T09:56:06.319Z,19.24
2023-02-15T09:57:06.922Z,19.18
2023-02-15T09:58:07.577Z,19.24
2023-02-15T09:59:08.179Z,19.21
2023-02-15T10:00:09.034Z,19.29
2023-02-15T10:01:09.637Z,19.19
2023-02-15T10:02:10.230Z,19.26
2023-02-15T10:03:10.885Z,19.21
2023-02-15T10:04:11.533Z,19.33
2023-02-15T10:05:12.116Z,19.29
2023-02-15T10:06:12.726Z,19.29
2023-02-15T10:07:13.376Z,19.33
2023-02-15T10:08:13.979Z,19.26
2023-02-15T10:09:14.581Z,19.33
2023-02-15T10:10:15.237Z,19.27
2023-02-15T10:11:15.832Z,19.24
2023-02-15T10:12:16.430Z,19.26
2023-02-15T10:13:17.145Z,19.24
2023-02-15T10:14:17.702Z,19.24
2023-02-15T10:15:18.376Z,19.30
2023-02-15T10:16:19.057Z,19.24
2023-02-15T10:17:19.706Z,19.33
2023-02-15T10:18:20.309Z,19.27
2023-02-15T10:19:20.907Z,19.27
2023-02-15T10:20:22.401Z,19.26
2023-02-15T10:21:23.020Z,19.24
2023-02-15T10:22:23.615Z,19.22
2023-02-15T10:23:24.213Z,19.29
2023-02-15T10:24:24.810Z,19.27
2023-02-15T10:25:25.462Z,19.33
2023-02-15T10:26:26.058Z,19.29
2023-02-15T10:27:26.666Z,19.26
2023-02-15T10:28:27.257Z,19.31
2023-02-15T10:29:27.852Z,19.33
2023-02-15T10:30:29.392Z,19.30
2023-02-15T10:31:30.204Z,19.31
2023-02-15T10:32:30.861Z,19.34
2023-02-15T10:33:31.458Z,19.39
2023-02-15T10:34:32.052Z,19.27
2023-02-15T10:35:32.651Z,19.34
2023-02-15T10:36:33.252Z,19.30
2023-02-15T10:37:33.913Z,19.36
2023-02-15T10:38:34.513Z,19.36
2023-02-15T10:39:35.111Z,19.26
2023-02-15T10:40:35.716Z,19.34
2023-02-15T10:41:36.306Z,19.39
2023-02-15T10:42:36.904Z,19.31
2023-02-15T10:43:37.496Z,19.41
2023-02-15T10:44:38.097Z,19.37
2023-02-15T10:45:38.706Z,19.36
2023-02-15T10:46:39.301Z,19.37
2023-02-15T10:47:39.903Z,19.37
2023-02-15T10:48:40.519Z,19.39
2023-02-15T10:49:41.133Z,19.36
2023-02-15T10:50:41.736Z,19.39
2023-02-15T10:51:42.333Z,19.37
2023-02-15T10:52:42.929Z,19.36
2023-02-15T10:53:43.540Z,19.44
2023-02-15T10:54:44.190Z,19.37
2023-02-15T10:55:44.851Z,19.39
2023-02-15T10:56:45.453Z,19.39
2023-02-15T10:57:46.067Z,19.36
2023-02-15T10:58:46.748Z,19.44
2023-02-15T10:59:47.406Z,19.34
2023-02-15T11:00:48.105Z,19.41
2023-02-15T11:01:48.750Z,19.37
2023-02-15T11:02:49.364Z,19.40
2023-02-15T11:03:50.818Z,19.36
2023-02-15T11:04:51.457Z,19.44
2023-02-15T11:05:52.056Z,19.40
2023-02-15T11:06:52.652Z,19.40
2023-02-15T11:07:53.258Z,19.44
2023-02-15T11:08:53.941Z,19.41
2023-02-15T11:09:54.539Z,19.40
2023-02-15T11:10:55.145Z,19.34
2023-02-15T11:11:55.744Z,19.44
2023-02-15T11:12:56.362Z,19.45
2023-02-15T11:13:56.982Z,19.40
2023-02-15T11:14:57.670Z,19.36
2023-02-15T11:15:58.328Z,19.33
2023-02-15T11:16:58.988Z,19.39
2023-02-15T11:18:00.436Z,19.40
2023-02-15T11:19:01.040Z,19.41
2023-02-15T11:20:01.642Z,19.40
2023-02-15T11:21:03.463Z,19.39
2023-02-15T11:22:04.229Z,19.34
2023-02-15T11:23:04.880Z,19.37
2023-02-15T11:24:05.474Z,19.39
2023-02-15T11:25:06.157Z,19.44
2023-02-15T11:26:06.774Z,19.39
2023-02-15T11:27:07.373Z,19.36
2023-02-15T11:28:08.780Z,19.39
2023-02-15T11:29:09.384Z,19.33
2023-02-15T11:30:10.131Z,19.39
2023-02-15T11:31:10.969Z,19.39
2023-02-15T11:32:11.686Z,19.26
2023-02-15T11:33:12.296Z,19.39
2023-02-15T11:34:12.893Z,19.37
2023-02-15T11:35:13.492Z,19.39
2023-02-15T11:36:14.079Z,19.22
2023-02-15T11:37:14.686Z,19.39
2023-02-15T11:38:15.283Z,19.36
2023-02-15T11:39:15.883Z,19.29
2023-02-15T11:40:16.476Z,19.31
2023-02-15T11:41:17.151Z,19.26
2023-02-15T11:42:17.765Z,19.34
2023-02-15T11:43:18.355Z,19.30
2023-02-15T11:44:18.949Z,19.37
2023-02-15T11:45:19.557Z,19.27
2023-02-15T11:46:20.159Z,19.31
2023-02-15T11:47:20.779Z,19.31
2023-02-15T11:48:21.356Z,19.33
2023-02-15T11:49:21.950Z,19.31
2023-02-15T11:50:22.559Z,19.27
2023-02-15T11:51:24.061Z,19.31
2023-02-15T11:52:24.752Z,19.33
2023-02-15T11:53:25.355Z,19.33
2023-02-15T11:54:25.948Z,19.31
2023-02-15T11:55:26.553Z,19.27
2023-02-15T11:56:27.157Z,19.24
2023-02-15T11:57:27.753Z,19.31
2023-02-15T11:58:28.360Z,19.31
2023-02-15T11:59:29.034Z,19.31
2023-02-15T12:00:29.697Z,19.29
2023-02-15T12:01:30.293Z,19.33
2023-02-15T12:02:30.921Z,19.30
2023-02-15T12:03:31.659Z,19.22
2023-02-15T12:04:32.268Z,19.30
2023-02-15T12:05:32.872Z,19.22
2023-02-15T12:06:33.530Z,19.26
2023-02-15T12:07:34.925Z,19.34
2023-02-15T12:08:35.685Z,19.24
2023-02-15T12:09:36.271Z,19.26
2023-02-15T12:10:36.869Z,19.30
2023-02-15T12:11:37.475Z,19.24
2023-02-15T12:12:38.072Z,19.27
2023-02-15T12:13:38.675Z,19.29
2023-02-15T12:14:39.277Z,19.22
2023-02-15T12:15:40.078Z,19.24
2023-02-15T12:16:40.709Z,19.19
2023-02-15T12:17:41.328Z,19.29
2023-02-15T12:18:41.926Z,19.34
2023-02-15T12:19:42.547Z,19.36
2023-02-15T12:20:43.186Z,19.26
2023-02-15T12:21:43.783Z,19.33
2023-02-15T12:22:44.375Z,19.22
2023-02-15T12:23:44.979Z,19.31
2023-02-15T12:24:46.429Z,19.21
2023-02-15T12:25:47.039Z,19.34
2023-02-15T12:26:47.630Z,19.29
2023-02-15T12:27:48.227Z,19.29
2023-02-15T12:28:48.879Z,19.24
2023-02-15T12:29:49.482Z,19.21
2023-02-15T12:30:50.152Z,19.27
2023-02-15T12:31:50.915Z,19.27
2023-02-15T12:32:51.698Z,19.27
2023-02-15T12:33:52.294Z,19.31
2023-02-15T12:34:53.756Z,19.27
2023-02-15T12:35:54.345Z,19.33
2023-02-15T12:36:54.939Z,19.26
2023-02-15T12:37:55.543Z,19.33
2023-02-15T12:38:59.496Z,19.22
2023-02-15T12:39:57.743Z,19.19
2023-02-15T12:40:58.407Z,19.29
2023-02-15T12:41:59.002Z,19.26
2023-02-15T12:42:59.649Z,19.31
2023-02-15T12:44:00.253Z,19.21
2023-02-15T12:45:00.902Z,19.26
2023-02-15T12:46:01.734Z,19.31
2023-02-15T12:47:02.533Z,19.29
2023-02-15T12:48:03.142Z,19.27
2023-02-15T12:49:03.746Z,19.21
2023-02-15T12:50:04.344Z,19.31
2023-02-15T12:51:05.020Z,19.31
2023-02-15T12:52:05.604Z,19.37
2023-02-15T12:53:06.215Z,19.36
2023-02-15T12:54:06.805Z,19.33
2023-02-15T12:55:07.410Z,19.33
2023-02-15T12:56:08.004Z,19.41
2023-02-15T12:57:08.608Z,19.24
2023-02-15T12:58:09.197Z,19.26
2023-02-15T12:59:10.593Z,19.36
2023-02-15T13:00:11.197Z,19.36
2023-02-15T13:01:11.918Z,19.39